Terminal Aerodrome Forecast
Issued by NWS Twin Cities, MN

Home | Current Version | Previous Version | Graphics & Text | Print | Product List | Glossary On
Versions: 1 2 3 4 5 6 7 8 9 10 11 12 13 14 15 16 17
000
FTUS43 KMPX 221100
TAFSTC
TAF
KSTC 221136Z 2212/2312 15013KT 3SM -DZ BR OVC004
     FM222000 12009KT 3SM -RASN BR OVC003
     FM222300 10008KT 2SM -SN BR OVC003
     FM230700 04011KT 2SM -SN BR OVC003=

USA.gov is the U.S. government's official web portal to all federal, state and local government web resources and services.